Otagawa — JD3046 — position and weather

sailwx.info

Track history (hours):
 
Tides and Currents Weather Stations Pressure Air Temp Water Temp Dewpoint Dewpoint Depression Visibility Wind Speed Wind Dir Waves Ship Positions

Otagawa

Last reported at 2017-May-23 10:30 UTC. Time now 2017-May-23 10:56 UTC.
Position N 35°02' E 139°44'.

Length 70 m; draft 4 m.

Type: Ship. MMSI: 431001328.

Date/timePositionNaut miles runAvg speedWind from/ knotsBaromVisibWave heightAir tempDewpointWater temp
2017-May-23 10:30N 35°02' E 139°44'510.4
2017-May-23 10:00N 35°07' E 139°45'510.1
2017-May-23 09:30N 35°12' E 139°46'510.1
2017-May-23 09:00N 35°17' E 139°45'510.6
2017-May-23 08:30N 35°22' E 139°42'3 5.5
2017-May-23 08:00N 35°24' E 139°41'0 0.0
2017-May-23 07:30N 35°24' E 139°41'0 0.0
2017-May-23 07:00N 35°24' E 139°41'0 0.0
2017-May-23 06:30N 35°24' E 139°41'0 0.0
2017-May-23 06:00N 35°24' E 139°41'0 0.0
2017-May-23 05:30N 35°24' E 139°41'0 0.0
2017-May-23 05:00N 35°24' E 139°41'0 0.0
2017-May-23 04:30N 35°24' E 139°41'0 0.0
2017-May-23 04:00N 35°24' E 139°41'1 2.6
2017-May-23 03:30N 35°23' E 139°40'0 0.0
2017-May-23 03:00N 35°23' E 139°40'0 0.0
2017-May-23 02:30N 35°23' E 139°40'0 0.0
2017-May-23 02:00N 35°23' E 139°40'0 0.0
2017-May-23 01:30N 35°23' E 139°40'0 0.0
2017-May-23 00:57N 35°23' E 139°40'0 0.0
2017-May-23 00:30N 35°23' E 139°40'0 0.0
2017-May-23 00:00N 35°23' E 139°40'0 0.0
2017-May-22 23:29N 35°23' E 139°40'0 0.0
2017-May-22 23:00N 35°23' E 139°40'0 0.1
2017-May-22 22:30N 35°23' E 139°40'0 0.0
2017-May-22 22:00N 35°23' E 139°40'0 0.0
2017-May-22 21:29N 35°23' E 139°40'0 0.1
2017-May-22 21:00N 35°23' E 139°40'0 0.1
2017-May-22 20:30N 35°23' E 139°40'0 0.0
2017-May-22 20:00N 35°23' E 139°40'0 0.1
2017-May-22 19:29N 35°23' E 139°40'0 0.1
2017-May-22 19:00N 35°23' E 139°40'0 0.0
2017-May-22 18:29N 35°23' E 139°40'0 0.1
2017-May-22 18:00N 35°23' E 139°40'0 0.0
2017-May-22 17:30N 35°23' E 139°40'0 0.0
2017-May-22 16:58N 35°23' E 139°40'0 0.0
2017-May-22 16:28N 35°23' E 139°40'0 0.1
2017-May-22 16:01N 35°23' E 139°40'4 8.3
2017-May-22 15:31N 35°27' E 139°43'1 2.7
2017-May-22 15:00N 35°28' E 139°42'0 0.0
2017-May-22 14:01N 35°28' E 139°42'0 0.0
2017-May-22 13:30N 35°28' E 139°42'0 0.1
2017-May-22 13:01N 35°28' E 139°42'0 0.1
2017-May-22 12:31N 35°28' E 139°42'0 0.0
2017-May-22 12:01N 35°28' E 139°42'0 0.0
2017-May-22 11:30N 35°28' E 139°42'0 0.0
2017-May-22 11:01N 35°28' E 139°42'0 0.0
2017-May-22 10:31N 35°28' E 139°42'0 0.0
2017-May-22 10:01N 35°28' E 139°42'0 0.0
2017-May-22 09:31N 35°28' E 139°42'0 0.0
2017-May-22 09:01N 35°28' E 139°42'0 0.0
2017-May-22 08:31N 35°28' E 139°42'0 0.0
2017-May-22 08:01N 35°28' E 139°42'0 0.0
2017-May-22 07:31N 35°28' E 139°42'0 0.3
2017-May-22 07:00N 35°28' E 139°42'3 6.1
2017-May-22 06:31N 35°26' E 139°45'5 9.8
2017-May-22 06:00N 35°22' E 139°45'510.1
2017-May-22 05:30N 35°17' E 139°46'510.5
2017-May-22 05:01N 35°11' E 139°47'611.1
2017-May-22 04:30N 35°06' E 139°45'510.8
2017-May-22 04:00N 35°01' E 139°44'6 9.7
2017-May-22 03:26N 34°55' E 139°46'  
2017-May-15 16:58N 34°57' E 139°44'510.6
2017-May-15 16:30N 35°02' E 139°44'510.8
2017-May-15 16:00N 35°08' E 139°45'510.7
2017-May-15 15:30N 35°13' E 139°47'510.5
2017-May-15 15:00N 35°18' E 139°44'7 6.9
2017-May-15 14:00N 35°24' E 139°41'0 0.0
2017-May-15 13:30N 35°24' E 139°41'0 0.0
2017-May-15 13:00N 35°24' E 139°41'0 0.0
2017-May-15 12:30N 35°24' E 139°41'0 0.0
2017-May-15 12:00N 35°24' E 139°41'0 0.0
2017-May-15 11:30N 35°24' E 139°41'0 0.0
2017-May-15 11:00N 35°24' E 139°41'2 3.2
2017-May-15 10:30N 35°25' E 139°42'3 5.3
2017-May-15 10:00N 35°28' E 139°42'0 0.0
2017-May-15 09:30N 35°28' E 139°42'0 0.0
2017-May-15 09:00N 35°28' E 139°42'0 0.0
2017-May-15 08:30N 35°28' E 139°42'0 0.0
2017-May-15 08:00N 35°28' E 139°42'2 3.5
2017-May-15 07:30N 35°27' E 139°44'5 9.8
2017-May-15 07:00N 35°22' E 139°45'510.1
2017-May-15 06:30N 35°17' E 139°45'510.7
2017-May-15 06:00N 35°12' E 139°46'510.7
2017-May-15 05:30N 35°06' E 139°45'611.3
2017-May-15 05:00N 35°01' E 139°44'610.3
2017-May-15 04:26N 34°55' E 139°46'  
Track history (hours):
 
Tides and Currents Weather Stations Pressure Air Temp Water Temp Dewpoint Dewpoint Depression Visibility Wind Speed Wind Dir Waves Ship Positions

Otagawa

Last reported at 2017-May-23 10:30 UTC. Time now 2017-May-23 10:56 UTC.
Position N 35°02' E 139°44'.

Length 70 m; draft 4 m.

Type: Ship. MMSI: 431001328.

Date/timePositionNaut miles runAvg speedWind from/ knotsBaromVisibWave heightAir tempDewpointWater temp
2017-May-23 10:30N 35°02' E 139°44'510.4
2017-May-23 10:00N 35°07' E 139°45'510.1
2017-May-23 09:30N 35°12' E 139°46'510.1
2017-May-23 09:00N 35°17' E 139°45'510.6
2017-May-23 08:30N 35°22' E 139°42'3 5.5
2017-May-23 08:00N 35°24' E 139°41'0 0.0
2017-May-23 07:30N 35°24' E 139°41'0 0.0
2017-May-23 07:00N 35°24' E 139°41'0 0.0
2017-May-23 06:30N 35°24' E 139°41'0 0.0
2017-May-23 06:00N 35°24' E 139°41'0 0.0
2017-May-23 05:30N 35°24' E 139°41'0 0.0
2017-May-23 05:00N 35°24' E 139°41'0 0.0
2017-May-23 04:30N 35°24' E 139°41'0 0.0
2017-May-23 04:00N 35°24' E 139°41'1 2.6
2017-May-23 03:30N 35°23' E 139°40'0 0.0
2017-May-23 03:00N 35°23' E 139°40'0 0.0
2017-May-23 02:30N 35°23' E 139°40'0 0.0
2017-May-23 02:00N 35°23' E 139°40'0 0.0
2017-May-23 01:30N 35°23' E 139°40'0 0.0
2017-May-23 00:57N 35°23' E 139°40'0 0.0
2017-May-23 00:30N 35°23' E 139°40'0 0.0
2017-May-23 00:00N 35°23' E 139°40'0 0.0
2017-May-22 23:29N 35°23' E 139°40'0 0.0
2017-May-22 23:00N 35°23' E 139°40'0 0.1
2017-May-22 22:30N 35°23' E 139°40'0 0.0
2017-May-22 22:00N 35°23' E 139°40'0 0.0
2017-May-22 21:29N 35°23' E 139°40'0 0.1
2017-May-22 21:00N 35°23' E 139°40'0 0.1
2017-May-22 20:30N 35°23' E 139°40'0 0.0
2017-May-22 20:00N 35°23' E 139°40'0 0.1
2017-May-22 19:29N 35°23' E 139°40'0 0.1
2017-May-22 19:00N 35°23' E 139°40'0 0.0
2017-May-22 18:29N 35°23' E 139°40'0 0.1
2017-May-22 18:00N 35°23' E 139°40'0 0.0
2017-May-22 17:30N 35°23' E 139°40'0 0.0
2017-May-22 16:58N 35°23' E 139°40'0 0.0
2017-May-22 16:28N 35°23' E 139°40'0 0.1
2017-May-22 16:01N 35°23' E 139°40'4 8.3
2017-May-22 15:31N 35°27' E 139°43'1 2.7
2017-May-22 15:00N 35°28' E 139°42'0 0.0
2017-May-22 14:01N 35°28' E 139°42'0 0.0
2017-May-22 13:30N 35°28' E 139°42'0 0.1
2017-May-22 13:01N 35°28' E 139°42'0 0.1
2017-May-22 12:31N 35°28' E 139°42'0 0.0
2017-May-22 12:01N 35°28' E 139°42'0 0.0
2017-May-22 11:30N 35°28' E 139°42'0 0.0
2017-May-22 11:01N 35°28' E 139°42'0 0.0
2017-May-22 10:31N 35°28' E 139°42'0 0.0
2017-May-22 10:01N 35°28' E 139°42'0 0.0
2017-May-22 09:31N 35°28' E 139°42'0 0.0
2017-May-22 09:01N 35°28' E 139°42'0 0.0
2017-May-22 08:31N 35°28' E 139°42'0 0.0
2017-May-22 08:01N 35°28' E 139°42'0 0.0
2017-May-22 07:31N 35°28' E 139°42'0 0.3
2017-May-22 07:00N 35°28' E 139°42'3 6.1
2017-May-22 06:31N 35°26' E 139°45'5 9.8
2017-May-22 06:00N 35°22' E 139°45'510.1
2017-May-22 05:30N 35°17' E 139°46'510.5
2017-May-22 05:01N 35°11' E 139°47'611.1
2017-May-22 04:30N 35°06' E 139°45'510.8
2017-May-22 04:00N 35°01' E 139°44'6 9.7
2017-May-22 03:26N 34°55' E 139°46'  
2017-May-15 16:58N 34°57' E 139°44'510.6
2017-May-15 16:30N 35°02' E 139°44'510.8
2017-May-15 16:00N 35°08' E 139°45'510.7
2017-May-15 15:30N 35°13' E 139°47'510.5
2017-May-15 15:00N 35°18' E 139°44'7 6.9
2017-May-15 14:00N 35°24' E 139°41'0 0.0
2017-May-15 13:30N 35°24' E 139°41'0 0.0
2017-May-15 13:00N 35°24' E 139°41'0 0.0
2017-May-15 12:30N 35°24' E 139°41'0 0.0
2017-May-15 12:00N 35°24' E 139°41'0 0.0
2017-May-15 11:30N 35°24' E 139°41'0 0.0
2017-May-15 11:00N 35°24' E 139°41'2 3.2
2017-May-15 10:30N 35°25' E 139°42'3 5.3
2017-May-15 10:00N 35°28' E 139°42'0 0.0
2017-May-15 09:30N 35°28' E 139°42'0 0.0
2017-May-15 09:00N 35°28' E 139°42'0 0.0
2017-May-15 08:30N 35°28' E 139°42'0 0.0
2017-May-15 08:00N 35°28' E 139°42'2 3.5
2017-May-15 07:30N 35°27' E 139°44'5 9.8
2017-May-15 07:00N 35°22' E 139°45'510.1
2017-May-15 06:30N 35°17' E 139°45'510.7
2017-May-15 06:00N 35°12' E 139°46'510.7
2017-May-15 05:30N 35°06' E 139°45'611.3
2017-May-15 05:00N 35°01' E 139°44'610.3
2017-May-15 04:26N 34°55' E 139°46'  

Dump ship's entire track history